Main page
METAR-TAF:

METAR-TAF

Airports :

Rick Husband Amarillo International Airport

Amarillo, Texas, United States

latitude: 35-13-12N, longitude: 101-43-02W, elevation: 3605 ft

Current weather observation

The report was made 51 minutes ago, at 14:53 UTC
Wind 8 mph from the North/Northwest
Temperature 43°F
Humidity 87%
Pressure 30.00 in. Hg
Visibility: 10 miles
Clear sky

METAR: KAMA 231453Z 34007KT 10SM CLR 06/04 A3000 RMK AO2 SLP149 T00610039 53017

Time: 10:44 (15:44 UTC)

Forecast

The report was made 4 hours and 24 minutes ago, at 11:20 UTC
Forecast valid from 23 at 12 UTC to 24 at 12 UTC
Wind 7 mph from the West
Visibility: 6 miles
Few clouds at a height of 20000 ft
From 23 at 1500 UTC
Wind 9 mph from the West/Northwest
Visibility: 6 miles
Clear sky
From 24 at 0900 UTC
Wind 9 mph from the West
Visibility: 6 miles
Clear sky

TAF: KAMA 231120Z 2312/2412 26006KT P6SM FEW200 FM231500 29008KT P6SM SKC FM240900 28008KT P6SM SKC

Weather observations and forecasts of more than 4000 airports (METAR and TAF reports).

The available stations are represented by yellow and red dots on the map.

Hover mouse over dot to see the name of the station.

Then click to see weather observations and forecasts.

To change the map : click on the green buttons with a black cross to zoom in, on the green button with a dash to zoom out, or on the green arrows for adjacent maps.


METAR-TAF: